createdAt,value
2024-02-11T00:01:52.461Z,86.37
2024-02-11T00:04:55.393Z,87.86
2024-02-11T00:07:57.556Z,88.89
2024-02-11T00:10:59.909Z,87.76
2024-02-11T00:14:01.703Z,85.96
2024-02-11T00:17:03.660Z,86.38
2024-02-11T00:20:08.458Z,87.18
2024-02-11T00:23:10.395Z,87.76
2024-02-11T00:26:12.738Z,87.19
2024-02-11T00:29:15.607Z,88.18
2024-02-11T00:32:17.636Z,88.37
2024-02-11T00:35:20.177Z,89.78
2024-02-11T00:38:22.214Z,90.11
2024-02-11T00:41:23.934Z,91.42
2024-02-11T00:44:25.853Z,90.60
2024-02-11T00:47:29.635Z,91.62
2024-02-11T00:50:34.483Z,90.89
2024-02-11T00:53:37.399Z,89.92
2024-02-11T00:56:44.102Z,90.49
2024-02-11T00:59:45.903Z,92.34
2024-02-11T01:02:47.950Z,92.97
2024-02-11T01:05:49.766Z,90.00
2024-02-11T01:08:51.911Z,90.97
2024-02-11T01:11:53.743Z,93.60
2024-02-11T01:14:56.896Z,92.16
2024-02-11T01:17:58.820Z,91.26
2024-02-11T01:21:00.559Z,89.94
2024-02-11T01:24:02.669Z,91.29
2024-02-11T01:27:04.826Z,89.14
2024-02-11T01:30:08.316Z,91.10
2024-02-11T01:33:10.993Z,90.53
2024-02-11T01:36:13.774Z,91.44
2024-02-11T01:39:15.971Z,92.30
2024-02-11T01:42:18.101Z,88.15
2024-02-11T01:45:19.847Z,89.86
2024-02-11T01:48:22.069Z,91.19
2024-02-11T01:51:24.276Z,90.41
2024-02-11T01:54:28.143Z,91.36
2024-02-11T01:57:30.026Z,93.02
2024-02-11T02:00:32.528Z,92.58
2024-02-11T02:03:35.988Z,94.11
2024-02-11T02:06:38.652Z,95.43
2024-02-11T02:09:40.656Z,93.77
2024-02-11T02:12:43.343Z,93.90
2024-02-11T02:15:45.231Z,93.65
2024-02-11T02:18:47.484Z,92.50
2024-02-11T02:21:52.412Z,91.78
2024-02-11T02:24:54.177Z,91.61
2024-02-11T02:27:55.963Z,93.72
2024-02-11T02:30:57.742Z,93.20
2024-02-11T02:33:59.538Z,93.52
2024-02-11T02:37:01.381Z,92.69
2024-02-11T02:40:03.267Z,93.16
2024-02-11T02:43:12.051Z,95.17
2024-02-11T02:46:14.663Z,93.14
2024-02-11T02:49:16.590Z,90.87
2024-02-11T02:52:18.403Z,91.86
2024-02-11T02:55:21.182Z,93.21
2024-02-11T02:58:26.079Z,94.76
2024-02-11T03:01:27.937Z,94.02
2024-02-11T03:04:29.698Z,93.18
2024-02-11T03:07:31.713Z,92.94
2024-02-11T03:10:34.394Z,93.01
2024-02-11T03:13:36.226Z,92.78
2024-02-11T03:16:37.999Z,92.53
2024-02-11T03:19:42.962Z,93.62
2024-02-11T03:22:45.175Z,92.67
2024-02-11T03:25:46.983Z,92.79
2024-02-11T03:28:48.722Z,91.99
2024-02-11T03:31:50.934Z,92.79
2024-02-11T03:34:52.773Z,93.64
2024-02-11T03:37:54.583Z,92.82
2024-02-11T03:40:57.460Z,92.40
2024-02-11T03:43:59.800Z,93.02
2024-02-11T03:47:05.356Z,92.45
2024-02-11T03:50:08.739Z,90.97
2024-02-11T03:53:10.932Z,92.04
2024-02-11T03:56:12.752Z,92.43
2024-02-11T03:59:15.117Z,93.38
2024-02-11T04:02:19.697Z,93.36
2024-02-11T04:05:26.364Z,92.45
2024-02-11T04:08:30.810Z,91.61
2024-02-11T04:11:32.727Z,91.15
2024-02-11T04:14:35.223Z,92.37
2024-02-11T04:17:37.734Z,91.97
2024-02-11T04:20:39.984Z,90.94
2024-02-11T04:23:42.863Z,89.56
2024-02-11T04:26:44.725Z,92.40
2024-02-11T04:29:46.470Z,91.82
2024-02-11T04:32:49.476Z,91.11
2024-02-11T04:35:51.444Z,91.71
2024-02-11T04:38:53.384Z,90.98
2024-02-11T04:41:56.774Z,90.78
2024-02-11T04:44:58.545Z,91.00
2024-02-11T04:48:04.976Z,93.08
2024-02-11T04:51:08.715Z,91.66
2024-02-11T04:54:10.605Z,91.47
2024-02-11T04:57:12.332Z,91.43
2024-02-11T05:00:25.026Z,91.42
2024-02-11T05:03:29.049Z,90.37
2024-02-11T05:06:32.832Z,92.85
2024-02-11T05:09:38.469Z,94.54
2024-02-11T05:12:40.280Z,93.56
2024-02-11T05:15:44.330Z,94.69
2024-02-11T05:18:46.066Z,92.86
2024-02-11T05:21:49.298Z,94.41
2024-02-11T05:24:51.057Z,93.82
2024-02-11T05:27:58.389Z,94.59
2024-02-11T05:31:00.289Z,95.75
2024-02-11T05:37:03.815Z,96.57
2024-02-11T05:40:10.692Z,94.98
2024-02-11T05:43:13.832Z,95.47
2024-02-11T05:46:15.897Z,94.92
2024-02-11T05:49:19.858Z,96.12
2024-02-11T05:52:21.856Z,94.64
2024-02-11T05:55:23.795Z,94.77
2024-02-11T05:58:25.728Z,95.37
2024-02-11T06:01:27.493Z,94.66
2024-02-11T06:04:29.476Z,94.44
2024-02-11T06:07:31.386Z,94.75
2024-02-11T06:10:36.088Z,94.25
2024-02-11T06:13:38.260Z,95.47
2024-02-11T06:16:40.203Z,94.54
2024-02-11T06:19:42.286Z,95.85
2024-02-11T06:22:44.518Z,95.89
2024-02-11T06:25:46.383Z,94.81
2024-02-11T06:28:49.438Z,94.07
2024-02-11T06:31:52.325Z,95.59
2024-02-11T06:34:54.369Z,96.01
2024-02-11T06:37:57.812Z,96.07
2024-02-11T06:40:59.790Z,95.24
2024-02-11T06:44:05.285Z,95.79
2024-02-11T06:47:10.916Z,94.71
2024-02-11T06:50:17.761Z,95.77
2024-02-11T06:53:20.170Z,94.66
2024-02-11T06:56:22.012Z,95.03
2024-02-11T06:59:23.793Z,96.39
2024-02-11T07:02:29.182Z,96.93
2024-02-11T07:05:32.317Z,95.02
2024-02-11T07:08:34.351Z,96.79
2024-02-11T07:11:36.117Z,92.76
2024-02-11T07:14:37.904Z,94.60
2024-02-11T07:17:42.539Z,94.68
2024-02-11T07:20:44.447Z,97.06
2024-02-11T07:23:46.186Z,94.05
2024-02-11T07:26:48.741Z,95.37
2024-02-11T07:29:51.095Z,93.88
2024-02-11T07:32:52.917Z,96.75
2024-02-11T07:35:54.764Z,93.67
2024-02-11T07:38:56.921Z,94.83
2024-02-11T07:41:59.675Z,93.84
2024-02-11T07:45:01.650Z,95.33
2024-02-11T07:48:04.727Z,94.60
2024-02-11T07:51:09.976Z,94.84
2024-02-11T07:54:12.761Z,94.70
2024-02-11T07:57:14.553Z,93.07
2024-02-11T08:00:16.591Z,92.60
2024-02-11T08:03:18.474Z,92.26
2024-02-11T08:06:20.804Z,91.08
2024-02-11T08:09:22.583Z,92.50
2024-02-11T08:12:24.430Z,93.06
2024-02-11T08:15:26.242Z,92.04
2024-02-11T08:18:28.160Z,92.16
2024-02-11T08:21:30.334Z,92.29
2024-02-11T08:24:32.100Z,91.40
2024-02-11T08:27:33.834Z,92.61
2024-02-11T08:30:35.580Z,93.93
2024-02-11T08:33:37.645Z,92.82
2024-02-11T08:36:39.415Z,95.12
2024-02-11T08:39:41.355Z,93.32
2024-02-11T08:42:43.161Z,92.63
2024-02-11T08:45:44.903Z,94.38
2024-02-11T08:48:46.833Z,92.97
2024-02-11T08:51:48.939Z,92.94
2024-02-11T08:54:51.165Z,93.79
2024-02-11T08:57:54.403Z,93.36
2024-02-11T09:00:56.267Z,93.72
2024-02-11T09:04:00.214Z,92.09
2024-02-11T09:07:02.211Z,93.14
2024-02-11T09:10:04.346Z,94.14
2024-02-11T09:13:06.604Z,93.92
2024-02-11T09:16:10.608Z,92.95
2024-02-11T09:19:15.034Z,92.99
2024-02-11T09:22:17.334Z,92.80
2024-02-11T09:25:19.614Z,92.44
2024-02-11T09:28:22.128Z,93.17
2024-02-11T09:31:23.983Z,92.58
2024-02-11T09:34:26.060Z,92.15
2024-02-11T09:37:27.941Z,92.39
2024-02-11T09:40:29.680Z,91.83
2024-02-11T09:43:32.174Z,92.06
2024-02-11T09:46:37.557Z,91.35
2024-02-11T09:49:43.679Z,90.51
2024-02-11T09:52:49.349Z,90.56
2024-02-11T09:55:51.156Z,91.69
2024-02-11T09:58:53.657Z,91.55
2024-02-11T10:01:58.200Z,92.74
2024-02-11T10:05:07.183Z,92.93
2024-02-11T10:08:17.088Z,92.00
2024-02-11T10:11:20.495Z,90.84
2024-02-11T10:14:27.003Z,91.97
2024-02-11T10:17:33.235Z,91.29
2024-02-11T10:20:39.596Z,91.01
2024-02-11T10:23:42.187Z,91.42
2024-02-11T10:26:48.641Z,90.87
2024-02-11T10:29:51.807Z,90.75
2024-02-11T10:33:00.418Z,90.25
2024-02-11T10:36:05.719Z,90.68
2024-02-11T10:39:07.511Z,90.80
2024-02-11T10:42:09.931Z,90.61
2024-02-11T10:45:12.266Z,90.61
2024-02-11T10:48:14.337Z,89.97
2024-02-11T10:51:24.826Z,90.91
2024-02-11T10:54:28.233Z,90.49
2024-02-11T10:57:41.993Z,91.04
2024-02-11T11:00:51.483Z,90.58
2024-02-11T11:03:55.687Z,90.15
2024-02-11T11:06:58.771Z,88.76
2024-02-11T11:10:00.668Z,89.65
2024-02-11T11:13:02.579Z,90.90
2024-02-11T11:16:07.414Z,90.50
2024-02-11T11:19:14.786Z,89.31
2024-02-11T11:22:29.699Z,90.11
2024-02-11T11:25:33.440Z,90.09
2024-02-11T11:28:42.282Z,89.94
2024-02-11T11:31:47.296Z,88.62
2024-02-11T11:34:51.798Z,89.29
2024-02-11T11:38:02.378Z,89.29
2024-02-11T11:41:05.077Z,89.25
2024-02-11T11:44:07.043Z,88.70
2024-02-11T11:47:09.059Z,88.47
2024-02-11T11:50:11.073Z,88.25
2024-02-11T11:53:21.007Z,90.21
2024-02-11T11:56:25.108Z,88.60
2024-02-11T11:59:27.469Z,89.95
2024-02-11T12:02:34.396Z,90.65
2024-02-11T12:05:36.314Z,90.41
2024-02-11T12:08:39.354Z,89.88
2024-02-11T12:11:45.336Z,91.19
2024-02-11T12:14:48.337Z,91.46
2024-02-11T12:17:51.861Z,91.67
2024-02-11T12:20:54.753Z,90.29
2024-02-11T12:23:57.774Z,90.82
2024-02-11T12:26:59.828Z,91.73
2024-02-11T12:30:02.467Z,90.15
2024-02-11T12:33:05.146Z,90.63
2024-02-11T12:36:23.562Z,92.46
2024-02-11T12:39:27.150Z,93.32
2024-02-11T12:42:28.878Z,92.41
2024-02-11T12:45:30.717Z,93.14
2024-02-11T12:48:32.556Z,92.96
2024-02-11T12:51:34.958Z,94.10
2024-02-11T12:54:37.162Z,92.06
2024-02-11T12:57:38.913Z,93.11
2024-02-11T13:00:40.702Z,92.87
2024-02-11T13:03:44.608Z,93.58
2024-02-11T13:06:46.637Z,93.89
2024-02-11T13:09:49.207Z,94.01
2024-02-11T13:12:53.223Z,93.78
2024-02-11T13:15:55.226Z,92.37
2024-02-11T13:18:57.122Z,93.80
2024-02-11T13:21:59.061Z,92.96
2024-02-11T13:25:01.154Z,91.05
2024-02-11T13:28:03.942Z,90.89
2024-02-11T13:31:14.091Z,91.63
2024-02-11T13:34:25.968Z,91.65
2024-02-11T13:37:30.664Z,92.79
2024-02-11T13:40:33.086Z,90.37
2024-02-11T13:43:34.911Z,89.64
2024-02-11T13:46:36.753Z,88.75
2024-02-11T13:49:38.524Z,90.65
2024-02-11T13:52:42.005Z,90.01
2024-02-11T13:55:46.067Z,89.68
2024-02-11T13:58:48.614Z,88.01
2024-02-11T14:01:51.745Z,90.91
2024-02-11T14:04:57.520Z,89.76
2024-02-11T14:07:59.388Z,89.55
2024-02-11T14:11:01.237Z,88.09
2024-02-11T14:14:06.952Z,89.99
2024-02-11T14:17:09.169Z,89.10
2024-02-11T14:20:12.602Z,88.22
2024-02-11T14:23:15.107Z,87.16
2024-02-11T14:26:18.215Z,88.29
2024-02-11T14:29:20.498Z,86.86
2024-02-11T14:32:22.577Z,86.45
2024-02-11T14:35:26.098Z,85.10
2024-02-11T14:38:29.641Z,86.68
2024-02-11T14:41:32.008Z,86.75
2024-02-11T14:44:34.833Z,85.87
2024-02-11T14:47:37.588Z,86.32
2024-02-11T14:50:39.834Z,85.64
2024-02-11T14:53:41.645Z,85.94
2024-02-11T14:56:47.402Z,84.89
2024-02-11T14:59:49.681Z,85.25
2024-02-11T15:02:51.485Z,85.06
2024-02-11T15:05:53.582Z,85.13
2024-02-11T15:08:56.105Z,86.45
2024-02-11T15:11:57.990Z,86.13
2024-02-11T15:15:00.789Z,86.29
2024-02-11T15:18:02.683Z,86.20
2024-02-11T15:21:08.025Z,85.83
2024-02-11T15:24:09.937Z,85.31
2024-02-11T15:27:11.758Z,85.48
2024-02-11T15:30:15.386Z,84.77
2024-02-11T15:33:17.756Z,85.71
2024-02-11T15:36:20.852Z,84.95
2024-02-11T15:39:23.362Z,84.56
2024-02-11T15:42:28.557Z,85.08
2024-02-11T15:45:31.367Z,84.98
2024-02-11T15:48:33.489Z,84.33
2024-02-11T15:51:35.390Z,84.41
2024-02-11T15:54:45.890Z,84.95
2024-02-11T15:57:48.326Z,86.18
2024-02-11T16:00:50.238Z,85.77
2024-02-11T16:03:52.108Z,85.71
2024-02-11T16:06:55.472Z,87.38
2024-02-11T16:09:57.610Z,86.20
2024-02-11T16:13:00.599Z,86.00
2024-02-11T16:16:03.906Z,85.88
2024-02-11T16:19:06.737Z,86.40
2024-02-11T16:22:08.613Z,85.86
2024-02-11T16:25:11.087Z,85.35
2024-02-11T16:28:12.898Z,85.67
2024-02-11T16:31:14.908Z,85.63
2024-02-11T16:34:19.471Z,85.61
2024-02-11T16:37:23.703Z,85.54
2024-02-11T16:40:26.374Z,85.61
2024-02-11T16:43:28.165Z,85.49
2024-02-11T16:46:30.390Z,85.50
2024-02-11T16:49:34.832Z,83.95
2024-02-11T16:52:37.611Z,84.46
2024-02-11T16:55:40.536Z,85.05
2024-02-11T16:58:42.518Z,84.50
2024-02-11T17:01:44.413Z,84.44
2024-02-11T17:04:47.046Z,84.47
2024-02-11T17:07:50.095Z,85.40
2024-02-11T17:10:52.750Z,87.26
2024-02-11T17:13:57.518Z,87.65
2024-02-11T17:17:00.708Z,89.03
2024-02-11T17:20:02.806Z,87.50
2024-02-11T17:23:05.949Z,90.07
2024-02-11T17:26:09.166Z,89.91
2024-02-11T17:29:11.862Z,90.02
2024-02-11T17:32:25.376Z,90.30
2024-02-11T17:35:32.539Z,91.56
2024-02-11T17:38:34.763Z,91.67
2024-02-11T17:41:44.861Z,91.18
2024-02-11T17:44:47.719Z,92.22
2024-02-11T17:47:53.068Z,93.40
2024-02-11T17:50:54.969Z,91.93
2024-02-11T17:54:00.426Z,93.14
2024-02-11T17:57:04.524Z,93.79
2024-02-11T18:00:10.860Z,95.76
2024-02-11T18:03:13.466Z,94.33
2024-02-11T18:06:18.150Z,93.73
2024-02-11T18:09:20.023Z,94.58
2024-02-11T18:12:23.694Z,96.10
2024-02-11T18:15:27.080Z,97.00
2024-02-11T18:18:34.213Z,97.94
2024-02-11T18:21:37.517Z,97.39
2024-02-11T18:24:39.548Z,96.84
2024-02-11T18:27:44.826Z,95.55
2024-02-11T18:30:46.615Z,96.29
2024-02-11T18:33:48.501Z,95.82
2024-02-11T18:36:50.528Z,96.41
2024-02-11T18:39:52.522Z,95.28
2024-02-11T18:42:55.250Z,94.33
2024-02-11T18:45:58.580Z,92.93
2024-02-11T18:49:00.486Z,92.16
2024-02-11T18:52:08.125Z,85.83
2024-02-11T18:55:10.068Z,86.68
2024-02-11T18:58:11.840Z,86.26
2024-02-11T19:01:13.656Z,86.43
2024-02-11T19:04:20.879Z,87.31
2024-02-11T19:07:24.249Z,88.81
2024-02-11T19:10:27.731Z,88.68
2024-02-11T19:13:29.890Z,89.69
2024-02-11T19:16:31.771Z,89.17
2024-02-11T19:19:35.727Z,89.22
2024-02-11T19:22:40.067Z,88.81
2024-02-11T19:25:41.864Z,87.25
2024-02-11T19:28:44.656Z,86.41
2024-02-11T19:31:47.846Z,86.82
2024-02-11T19:34:49.660Z,87.20
2024-02-11T19:37:52.113Z,87.48
2024-02-11T19:40:53.919Z,87.98
2024-02-11T19:43:58.110Z,88.58
2024-02-11T19:47:00.699Z,88.30
2024-02-11T19:50:05.563Z,90.69
2024-02-11T19:53:25.253Z,89.51
2024-02-11T19:56:33.254Z,85.97
2024-02-11T19:59:36.006Z,85.81
2024-02-11T20:02:41.383Z,84.82
2024-02-11T20:05:44.163Z,84.07
2024-02-11T20:08:48.046Z,85.45
2024-02-11T20:11:49.952Z,85.47
2024-02-11T20:14:52.319Z,83.52
2024-02-11T20:17:55.608Z,85.54
2024-02-11T20:20:58.501Z,90.71
2024-02-11T20:24:00.278Z,86.92
2024-02-11T20:27:02.149Z,88.57
2024-02-11T20:30:05.079Z,88.19
2024-02-11T20:33:09.009Z,88.07
2024-02-11T20:36:14.654Z,88.62
2024-02-11T20:39:16.612Z,88.38
2024-02-11T20:42:21.276Z,88.13
2024-02-11T20:45:23.105Z,85.49
2024-02-11T20:48:25.412Z,85.97
2024-02-11T20:51:32.303Z,82.95
2024-02-11T20:54:34.329Z,85.14
2024-02-11T20:57:38.899Z,86.02
2024-02-11T21:00:41.136Z,86.08
2024-02-11T21:03:42.924Z,83.71
2024-02-11T21:06:47.057Z,86.83
2024-02-11T21:09:50.889Z,82.97
2024-02-11T21:12:54.800Z,84.81
2024-02-11T21:15:56.624Z,85.47
2024-02-11T21:18:58.606Z,88.10
2024-02-11T21:22:00.541Z,87.54
2024-02-11T21:25:02.340Z,88.28
2024-02-11T21:28:04.373Z,88.99
2024-02-11T21:31:13.072Z,87.60
2024-02-11T21:34:23.758Z,86.79
2024-02-11T21:37:26.937Z,84.97
2024-02-11T21:40:28.973Z,85.54
2024-02-11T21:43:30.757Z,83.27
2024-02-11T21:46:33.085Z,84.27
2024-02-11T21:49:34.865Z,83.61
2024-02-11T21:52:36.676Z,83.21
2024-02-11T21:55:38.819Z,80.89
2024-02-11T21:58:40.601Z,80.02
2024-02-11T22:01:43.453Z,84.45
2024-02-11T22:04:45.362Z,82.63
2024-02-11T22:07:47.290Z,81.79
2024-02-11T22:10:49.134Z,82.80
2024-02-11T22:13:51.087Z,83.43
2024-02-11T22:16:52.904Z,86.60
2024-02-11T22:19:54.900Z,86.40
2024-02-11T22:22:57.308Z,87.08
2024-02-11T22:26:01.398Z,87.58
2024-02-11T22:29:07.533Z,86.29
2024-02-11T22:32:11.068Z,84.05
2024-02-11T22:35:14.504Z,88.83
2024-02-11T22:38:16.776Z,89.60
2024-02-11T22:41:18.931Z,89.83
2024-02-11T22:44:20.830Z,87.95
2024-02-11T22:47:22.761Z,89.34
2024-02-11T22:50:24.637Z,90.18
2024-02-11T22:53:26.508Z,89.23
2024-02-11T22:56:28.408Z,89.67
2024-02-11T22:59:31.004Z,91.88
2024-02-11T23:02:32.889Z,90.74
2024-02-11T23:05:37.605Z,90.88
2024-02-11T23:08:39.689Z,92.65
2024-02-11T23:11:42.363Z,91.66
2024-02-11T23:14:45.377Z,92.69
2024-02-11T23:17:47.401Z,89.65
2024-02-11T23:20:51.052Z,86.99
2024-02-11T23:23:52.908Z,87.41
2024-02-11T23:27:07.396Z,89.50
2024-02-11T23:30:12.309Z,89.99
2024-02-11T23:33:14.297Z,89.60
2024-02-11T23:36:18.284Z,90.70
2024-02-11T23:39:24.015Z,90.22
2024-02-11T23:42:26.438Z,88.91
2024-02-11T23:45:28.200Z,90.00
2024-02-11T23:48:30.055Z,92.44
2024-02-11T23:51:35.022Z,92.50
2024-02-11T23:54:40.050Z,92.44
2024-02-11T23:57:43.186Z,93.69
